sensor_id;sensor_type;location;lat;lon;timestamp;P1;durP1;ratioP1;P2;durP2;ratioP2
11269;SDS011;5692;48.956;9.200;2023-10-13T00:01:01;440.08;;;419.08;;
11269;SDS011;5692;48.956;9.200;2023-10-13T00:03:30;428.75;;;408.27;;
11269;SDS011;5692;48.956;9.200;2023-10-13T00:05:59;432.38;;;411.75;;
11269;SDS011;5692;48.956;9.200;2023-10-13T00:08:28;437.40;;;416.50;;
11269;SDS011;5692;48.956;9.200;2023-10-13T00:10:54;424.45;;;404.15;;
11269;SDS011;5692;48.956;9.200;2023-10-13T00:13:27;446.75;;;425.45;;
11269;SDS011;5692;48.956;9.200;2023-10-13T00:15:55;444.95;;;423.75;;
11269;SDS011;5692;48.956;9.200;2023-10-13T00:20:52;428.48;;;408.00;;
11269;SDS011;5692;48.956;9.200;2023-10-13T00:23:21;453.10;;;431.50;;
11269;SDS011;5692;48.956;9.200;2023-10-13T00:25:48;441.50;;;420.42;;
11269;SDS011;5692;48.956;9.200;2023-10-13T00:28:34;449.98;;;428.50;;
11269;SDS011;5692;48.956;9.200;2023-10-13T00:31:01;447.80;;;426.42;;
11269;SDS011;5692;48.956;9.200;2023-10-13T00:33:36;429.80;;;409.30;;
11269;SDS011;5692;48.956;9.200;2023-10-13T00:36:03;412.52;;;392.83;;
11269;SDS011;5692;48.956;9.200;2023-10-13T00:38:30;430.17;;;409.65;;
11269;SDS011;5692;48.956;9.200;2023-10-13T00:40:56;438.90;;;417.93;;
11269;SDS011;5692;48.956;9.200;2023-10-13T00:43:28;434.63;;;413.88;;
11269;SDS011;5692;48.956;9.200;2023-10-13T00:45:58;436.70;;;415.85;;
11269;SDS011;5692;48.956;9.200;2023-10-13T00:48:29;430.55;;;410.00;;
11269;SDS011;5692;48.956;9.200;2023-10-13T00:51:00;441.70;;;420.63;;
11269;SDS011;5692;48.956;9.200;2023-10-13T00:53:33;421.00;;;400.90;;
11269;SDS011;5692;48.956;9.200;2023-10-13T00:56:01;419.58;;;399.55;;
11269;SDS011;5692;48.956;9.200;2023-10-13T01:01:02;425.77;;;405.45;;
11269;SDS011;5692;48.956;9.200;2023-10-13T01:03:58;399.05;;;379.98;;
11269;SDS011;5692;48.956;9.200;2023-10-13T01:06:25;406.63;;;387.20;;
11269;SDS011;5692;48.956;9.200;2023-10-13T01:09:01;426.90;;;406.52;;
11269;SDS011;5692;48.956;9.200;2023-10-13T01:11:45;421.33;;;401.23;;
11269;SDS011;5692;48.956;9.200;2023-10-13T01:14:13;436.25;;;415.40;;
11269;SDS011;5692;48.956;9.200;2023-10-13T01:16:43;428.67;;;408.20;;
11269;SDS011;5692;48.956;9.200;2023-10-13T01:19:13;437.90;;;417.00;;
11269;SDS011;5692;48.956;9.200;2023-10-13T01:21:42;426.80;;;406.42;;
11269;SDS011;5692;48.956;9.200;2023-10-13T01:24:12;433.67;;;412.98;;
11269;SDS011;5692;48.956;9.200;2023-10-13T01:26:38;446.90;;;425.55;;
11269;SDS011;5692;48.956;9.200;2023-10-13T01:29:08;433.23;;;412.52;;
11269;SDS011;5692;48.956;9.200;2023-10-13T01:31:48;453.10;;;431.50;;
11269;SDS011;5692;48.956;9.200;2023-10-13T01:34:15;437.63;;;416.73;;
11269;SDS011;5692;48.956;9.200;2023-10-13T01:36:47;435.63;;;414.83;;
11269;SDS011;5692;48.956;9.200;2023-10-13T01:39:16;427.95;;;407.55;;
11269;SDS011;5692;48.956;9.200;2023-10-13T01:41:42;427.70;;;407.30;;
11269;SDS011;5692;48.956;9.200;2023-10-13T01:44:09;433.77;;;413.05;;
11269;SDS011;5692;48.956;9.200;2023-10-13T01:46:39;425.17;;;404.88;;
11269;SDS011;5692;48.956;9.200;2023-10-13T01:49:07;416.67;;;396.77;;
11269;SDS011;5692;48.956;9.200;2023-10-13T01:51:33;431.30;;;410.70;;
11269;SDS011;5692;48.956;9.200;2023-10-13T01:53:59;405.30;;;385.95;;
11269;SDS011;5692;48.956;9.200;2023-10-13T01:56:28;420.92;;;400.83;;
11269;SDS011;5692;48.956;9.200;2023-10-13T01:58:56;414.13;;;394.35;;
11269;SDS011;5692;48.956;9.200;2023-10-13T02:01:22;445.58;;;424.30;;
11269;SDS011;5692;48.956;9.200;2023-10-13T02:03:55;430.85;;;410.30;;
11269;SDS011;5692;48.956;9.200;2023-10-13T02:06:28;419.45;;;399.45;;
11269;SDS011;5692;48.956;9.200;2023-10-13T02:09:01;411.58;;;391.92;;
11269;SDS011;5692;48.956;9.200;2023-10-13T02:11:42;416.50;;;396.63;;
11269;SDS011;5692;48.956;9.200;2023-10-13T02:14:12;416.35;;;396.50;;
11269;SDS011;5692;48.956;9.200;2023-10-13T02:16:43;417.65;;;397.73;;
11269;SDS011;5692;48.956;9.200;2023-10-13T02:19:12;432.88;;;412.23;;
11269;SDS011;5692;48.956;9.200;2023-10-13T02:21:40;429.70;;;409.20;;
11269;SDS011;5692;48.956;9.200;2023-10-13T02:24:10;418.35;;;398.35;;
11269;SDS011;5692;48.956;9.200;2023-10-13T02:26:43;418.92;;;398.92;;
11269;SDS011;5692;48.956;9.200;2023-10-13T02:29:11;420.55;;;400.48;;
11269;SDS011;5692;48.956;9.200;2023-10-13T02:31:38;415.25;;;395.40;;
11269;SDS011;5692;48.956;9.200;2023-10-13T02:34:05;403.38;;;384.13;;
11269;SDS011;5692;48.956;9.200;2023-10-13T02:36:37;401.15;;;382.00;;
11269;SDS011;5692;48.956;9.200;2023-10-13T02:39:13;404.08;;;384.77;;
11269;SDS011;5692;48.956;9.200;2023-10-13T02:41:41;418.08;;;398.10;;
11269;SDS011;5692;48.956;9.200;2023-10-13T02:44:12;407.65;;;388.20;;
11269;SDS011;5692;48.956;9.200;2023-10-13T02:46:51;393.60;;;374.80;;
11269;SDS011;5692;48.956;9.200;2023-10-13T02:49:20;402.17;;;382.98;;
11269;SDS011;5692;48.956;9.200;2023-10-13T02:51:46;415.52;;;395.70;;
11269;SDS011;5692;48.956;9.200;2023-10-13T02:54:12;414.20;;;394.42;;
11269;SDS011;5692;48.956;9.200;2023-10-13T02:56:43;410.75;;;391.15;;
11269;SDS011;5692;48.956;9.200;2023-10-13T02:59:14;384.95;;;366.58;;
11269;SDS011;5692;48.956;9.200;2023-10-13T03:01:40;412.75;;;393.05;;
11269;SDS011;5692;48.956;9.200;2023-10-13T03:04:08;415.90;;;396.05;;
11269;SDS011;5692;48.956;9.200;2023-10-13T03:06:35;408.00;;;388.52;;
11269;SDS011;5692;48.956;9.200;2023-10-13T03:09:06;427.73;;;407.33;;
11269;SDS011;5692;48.956;9.200;2023-10-13T03:11:47;403.55;;;384.30;;
11269;SDS011;5692;48.956;9.200;2023-10-13T03:14:23;422.23;;;402.08;;
11269;SDS011;5692;48.956;9.200;2023-10-13T03:16:51;418.35;;;398.35;;
11269;SDS011;5692;48.956;9.200;2023-10-13T03:19:17;409.83;;;390.23;;
11269;SDS011;5692;48.956;9.200;2023-10-13T03:21:46;413.25;;;393.52;;
11269;SDS011;5692;48.956;9.200;2023-10-13T03:24:30;418.77;;;398.77;;
11269;SDS011;5692;48.956;9.200;2023-10-13T03:27:00;411.25;;;391.63;;
11269;SDS011;5692;48.956;9.200;2023-10-13T03:29:33;411.38;;;391.75;;
11269;SDS011;5692;48.956;9.200;2023-10-13T03:32:00;411.52;;;391.88;;
11269;SDS011;5692;48.956;9.200;2023-10-13T03:34:32;422.15;;;402.00;;
11269;SDS011;5692;48.956;9.200;2023-10-13T03:36:59;398.98;;;379.92;;
11269;SDS011;5692;48.956;9.200;2023-10-13T03:39:35;409.27;;;389.73;;
11269;SDS011;5692;48.956;9.200;2023-10-13T03:42:01;401.83;;;382.65;;
11269;SDS011;5692;48.956;9.200;2023-10-13T03:44:30;393.17;;;374.38;;
11269;SDS011;5692;48.956;9.200;2023-10-13T03:46:56;407.52;;;388.08;;
11269;SDS011;5692;48.956;9.200;2023-10-13T03:49:36;407.13;;;387.70;;
11269;SDS011;5692;48.956;9.200;2023-10-13T03:52:03;401.02;;;381.90;;
11269;SDS011;5692;48.956;9.200;2023-10-13T03:54:30;397.55;;;378.58;;
11269;SDS011;5692;48.956;9.200;2023-10-13T03:56:59;406.52;;;387.13;;
11269;SDS011;5692;48.956;9.200;2023-10-13T03:59:29;424.45;;;404.17;;
11269;SDS011;5692;48.956;9.200;2023-10-13T04:02:00;406.73;;;387.30;;
11269;SDS011;5692;48.956;9.200;2023-10-13T04:04:29;407.48;;;388.02;;
11269;SDS011;5692;48.956;9.200;2023-10-13T04:06:55;400.03;;;380.93;;
11269;SDS011;5692;48.956;9.200;2023-10-13T04:09:30;394.25;;;375.42;;
11269;SDS011;5692;48.956;9.200;2023-10-13T04:11:56;382.92;;;364.65;;
11269;SDS011;5692;48.956;9.200;2023-10-13T04:14:29;394.23;;;375.42;;
11269;SDS011;5692;48.956;9.200;2023-10-13T04:17:14;387.13;;;368.65;;
11269;SDS011;5692;48.956;9.200;2023-10-13T04:19:40;379.00;;;360.88;;
11269;SDS011;5692;48.956;9.200;2023-10-13T04:22:26;374.63;;;356.73;;
11269;SDS011;5692;48.956;9.200;2023-10-13T04:25:27;389.08;;;370.50;;
11269;SDS011;5692;48.956;9.200;2023-10-13T04:28:06;396.48;;;377.55;;
11269;SDS011;5692;48.956;9.200;2023-10-13T04:30:39;401.00;;;381.85;;
11269;SDS011;5692;48.956;9.200;2023-10-13T04:33:20;388.42;;;369.90;;
11269;SDS011;5692;48.956;9.200;2023-10-13T04:41:28;385.80;;;367.38;;
11269;SDS011;5692;48.956;9.200;2023-10-13T04:44:07;365.88;;;348.40;;
11269;SDS011;5692;48.956;9.200;2023-10-13T04:46:53;387.02;;;368.55;;
11269;SDS011;5692;48.956;9.200;2023-10-13T04:49:32;400.55;;;381.42;;
11269;SDS011;5692;48.956;9.200;2023-10-13T04:52:05;408.55;;;389.05;;
11269;SDS011;5692;48.956;9.200;2023-10-13T04:54:35;405.13;;;385.80;;
11269;SDS011;5692;48.956;9.200;2023-10-13T04:57:11;409.25;;;389.70;;
11269;SDS011;5692;48.956;9.200;2023-10-13T04:59:48;415.20;;;395.40;;
11269;SDS011;5692;48.956;9.200;2023-10-13T05:02:33;382.52;;;364.25;;
11269;SDS011;5692;48.956;9.200;2023-10-13T05:05:03;404.67;;;385.35;;
11269;SDS011;5692;48.956;9.200;2023-10-13T05:08:07;389.63;;;371.02;;
11269;SDS011;5692;48.956;9.200;2023-10-13T05:10:52;388.67;;;370.13;;
11269;SDS011;5692;48.956;9.200;2023-10-13T05:13:37;395.15;;;376.27;;
11269;SDS011;5692;48.956;9.200;2023-10-13T05:16:21;390.38;;;371.75;;
11269;SDS011;5692;48.956;9.200;2023-10-13T05:19:06;403.13;;;383.88;;
11269;SDS011;5692;48.956;9.200;2023-10-13T05:21:50;411.08;;;391.45;;
11269;SDS011;5692;48.956;9.200;2023-10-13T05:24:35;379.25;;;361.15;;
11269;SDS011;5692;48.956;9.200;2023-10-13T05:27:20;356.60;;;339.58;;
11269;SDS011;5692;48.956;9.200;2023-10-13T05:30:04;393.90;;;375.10;;
11269;SDS011;5692;48.956;9.200;2023-10-13T05:32:50;391.80;;;373.08;;
11269;SDS011;5692;48.956;9.200;2023-10-13T05:35:34;373.05;;;355.25;;
11269;SDS011;5692;48.956;9.200;2023-10-13T05:38:19;380.05;;;361.90;;
11269;SDS011;5692;48.956;9.200;2023-10-13T05:41:04;389.77;;;371.17;;
11269;SDS011;5692;48.956;9.200;2023-10-13T05:43:49;380.27;;;362.10;;
11269;SDS011;5692;48.956;9.200;2023-10-13T05:46:34;377.25;;;359.20;;
11269;SDS011;5692;48.956;9.200;2023-10-13T05:49:03;380.50;;;362.35;;
11269;SDS011;5692;48.956;9.200;2023-10-13T05:51:32;378.52;;;360.45;;
11269;SDS011;5692;48.956;9.200;2023-10-13T05:54:05;363.30;;;345.95;;
11269;SDS011;5692;48.956;9.200;2023-10-13T05:56:56;348.70;;;332.05;;
11269;SDS011;5692;48.956;9.200;2023-10-13T05:59:44;395.52;;;376.67;;
11269;SDS011;5692;48.956;9.200;2023-10-13T06:02:28;367.05;;;349.55;;
11269;SDS011;5692;48.956;9.200;2023-10-13T06:05:13;357.48;;;340.38;;
11269;SDS011;5692;48.956;9.200;2023-10-13T06:07:58;378.15;;;360.10;;
11269;SDS011;5692;48.956;9.200;2023-10-13T06:11:04;374.50;;;356.63;;
11269;SDS011;5692;48.956;9.200;2023-10-13T06:13:48;379.05;;;360.95;;
11269;SDS011;5692;48.956;9.200;2023-10-13T06:16:32;385.10;;;366.73;;
11269;SDS011;5692;48.956;9.200;2023-10-13T06:19:17;355.25;;;338.30;;
11269;SDS011;5692;48.956;9.200;2023-10-13T06:22:02;369.63;;;351.98;;
11269;SDS011;5692;48.956;9.200;2023-10-13T06:24:46;367.17;;;349.65;;
11269;SDS011;5692;48.956;9.200;2023-10-13T06:27:31;367.60;;;350.05;;
11269;SDS011;5692;48.956;9.200;2023-10-13T06:30:15;363.17;;;345.83;;
11269;SDS011;5692;48.956;9.200;2023-10-13T06:32:42;362.90;;;345.55;;
11269;SDS011;5692;48.956;9.200;2023-10-13T06:35:11;373.42;;;355.63;;
11269;SDS011;5692;48.956;9.200;2023-10-13T06:37:50;369.23;;;351.58;;
11269;SDS011;5692;48.956;9.200;2023-10-13T06:40:25;368.65;;;351.05;;
11269;SDS011;5692;48.956;9.200;2023-10-13T06:42:53;363.98;;;346.58;;
11269;SDS011;5692;48.956;9.200;2023-10-13T06:45:44;384.70;;;366.35;;
11269;SDS011;5692;48.956;9.200;2023-10-13T06:48:25;388.92;;;370.35;;
11269;SDS011;5692;48.956;9.200;2023-10-13T06:50:52;380.75;;;362.60;;
11269;SDS011;5692;48.956;9.200;2023-10-13T06:53:21;384.13;;;365.77;;
11269;SDS011;5692;48.956;9.200;2023-10-13T06:55:49;381.65;;;363.42;;
11269;SDS011;5692;48.956;9.200;2023-10-13T06:58:34;388.25;;;369.70;;
11269;SDS011;5692;48.956;9.200;2023-10-13T07:01:00;367.90;;;350.35;;
11269;SDS011;5692;48.956;9.200;2023-10-13T07:03:26;361.45;;;344.20;;
11269;SDS011;5692;48.956;9.200;2023-10-13T07:05:52;378.38;;;360.33;;
11269;SDS011;5692;48.956;9.200;2023-10-13T07:08:19;404.38;;;385.08;;
11269;SDS011;5692;48.956;9.200;2023-10-13T07:10:52;404.55;;;385.23;;
11269;SDS011;5692;48.956;9.200;2023-10-13T07:13:30;397.65;;;378.65;;
11269;SDS011;5692;48.956;9.200;2023-10-13T07:15:56;404.83;;;385.50;;
11269;SDS011;5692;48.956;9.200;2023-10-13T07:18:25;401.25;;;382.10;;
11269;SDS011;5692;48.956;9.200;2023-10-13T07:20:51;394.23;;;375.38;;
11269;SDS011;5692;48.956;9.200;2023-10-13T07:23:24;382.67;;;364.38;;
11269;SDS011;5692;48.956;9.200;2023-10-13T07:25:53;373.98;;;356.13;;
11269;SDS011;5692;48.956;9.200;2023-10-13T07:28:20;403.45;;;384.17;;
11269;SDS011;5692;48.956;9.200;2023-10-13T07:30:47;392.73;;;373.98;;
11269;SDS011;5692;48.956;9.200;2023-10-13T07:33:19;373.33;;;355.50;;
11269;SDS011;5692;48.956;9.200;2023-10-13T07:35:45;393.30;;;374.52;;
11269;SDS011;5692;48.956;9.200;2023-10-13T07:38:15;389.13;;;370.58;;
11269;SDS011;5692;48.956;9.200;2023-10-13T07:40:41;392.73;;;373.98;;
11269;SDS011;5692;48.956;9.200;2023-10-13T07:43:15;379.83;;;361.70;;
11269;SDS011;5692;48.956;9.200;2023-10-13T07:45:46;376.65;;;358.65;;
11269;SDS011;5692;48.956;9.200;2023-10-13T07:48:16;371.33;;;353.60;;
11269;SDS011;5692;48.956;9.200;2023-10-13T07:50:57;359.52;;;342.33;;
11269;SDS011;5692;48.956;9.200;2023-10-13T07:53:26;376.88;;;358.88;;
11269;SDS011;5692;48.956;9.200;2023-10-13T07:55:54;373.17;;;355.38;;
11269;SDS011;5692;48.956;9.200;2023-10-13T07:58:21;396.20;;;377.27;;
11269;SDS011;5692;48.956;9.200;2023-10-13T08:00:50;398.98;;;379.92;;
11269;SDS011;5692;48.956;9.200;2023-10-13T08:03:24;407.67;;;388.23;;
11269;SDS011;5692;48.956;9.200;2023-10-13T08:06:00;378.48;;;360.40;;
11269;SDS011;5692;48.956;9.200;2023-10-13T08:08:44;398.92;;;379.88;;
11269;SDS011;5692;48.956;9.200;2023-10-13T08:11:15;403.17;;;383.95;;
11269;SDS011;5692;48.956;9.200;2023-10-13T08:13:55;396.55;;;377.63;;
11269;SDS011;5692;48.956;9.200;2023-10-13T08:16:25;400.52;;;381.40;;
11269;SDS011;5692;48.956;9.200;2023-10-13T08:19:12;408.73;;;389.23;;
11269;SDS011;5692;48.956;9.200;2023-10-13T08:21:45;423.15;;;402.95;;
11269;SDS011;5692;48.956;9.200;2023-10-13T08:24:16;419.15;;;399.13;;
11269;SDS011;5692;48.956;9.200;2023-10-13T08:27:03;422.02;;;401.88;;
11269;SDS011;5692;48.956;9.200;2023-10-13T08:29:48;448.90;;;427.48;;
11269;SDS011;5692;48.956;9.200;2023-10-13T08:32:34;448.85;;;427.40;;
11269;SDS011;5692;48.956;9.200;2023-10-13T08:35:19;445.35;;;424.08;;
11269;SDS011;5692;48.956;9.200;2023-10-13T08:38:09;423.45;;;403.25;;
11269;SDS011;5692;48.956;9.200;2023-10-13T08:40:44;431.67;;;411.08;;
11269;SDS011;5692;48.956;9.200;2023-10-13T08:43:31;427.65;;;407.25;;
11269;SDS011;5692;48.956;9.200;2023-10-13T08:46:16;417.15;;;397.25;;
11269;SDS011;5692;48.956;9.200;2023-10-13T08:49:12;419.10;;;399.08;;
11269;SDS011;5692;48.956;9.200;2023-10-13T08:51:42;434.48;;;413.73;;
11269;SDS011;5692;48.956;9.200;2023-10-13T08:54:18;410.60;;;391.00;;
11269;SDS011;5692;48.956;9.200;2023-10-13T08:56:47;433.48;;;412.77;;
11269;SDS011;5692;48.956;9.200;2023-10-13T08:59:30;438.50;;;417.60;;
11269;SDS011;5692;48.956;9.200;2023-10-13T09:02:25;444.77;;;423.52;;
11269;SDS011;5692;48.956;9.200;2023-10-13T09:05:12;439.27;;;418.30;;
11269;SDS011;5692;48.956;9.200;2023-10-13T09:07:59;440.58;;;419.55;;
11269;SDS011;5692;48.956;9.200;2023-10-13T09:10:34;423.05;;;402.85;;
11269;SDS011;5692;48.956;9.200;2023-10-13T09:13:18;437.83;;;416.92;;
11269;SDS011;5692;48.956;9.200;2023-10-13T09:15:49;433.30;;;412.65;;
11269;SDS011;5692;48.956;9.200;2023-10-13T09:18:28;436.33;;;415.50;;
11269;SDS011;5692;48.956;9.200;2023-10-13T09:21:14;429.30;;;408.83;;
11269;SDS011;5692;48.956;9.200;2023-10-13T09:24:11;439.05;;;418.10;;
11269;SDS011;5692;48.956;9.200;2023-10-13T09:26:47;466.50;;;444.25;;
11269;SDS011;5692;48.956;9.200;2023-10-13T09:29:39;470.13;;;447.67;;
11269;SDS011;5692;48.956;9.200;2023-10-13T09:32:07;443.85;;;422.65;;
11269;SDS011;5692;48.956;9.200;2023-10-13T09:34:37;444.70;;;423.50;;
11269;SDS011;5692;48.956;9.200;2023-10-13T09:37:11;466.65;;;444.40;;
11269;SDS011;5692;48.956;9.200;2023-10-13T09:39:42;461.90;;;439.85;;
11269;SDS011;5692;48.956;9.200;2023-10-13T09:42:10;463.98;;;441.88;;
11269;SDS011;5692;48.956;9.200;2023-10-13T09:44:37;445.55;;;424.30;;
11269;SDS011;5692;48.956;9.200;2023-10-13T09:47:05;466.77;;;444.50;;
11269;SDS011;5692;48.956;9.200;2023-10-13T09:49:42;453.83;;;432.17;;
11269;SDS011;5692;48.956;9.200;2023-10-13T09:52:17;456.20;;;434.43;;
11269;SDS011;5692;48.956;9.200;2023-10-13T09:54:53;455.55;;;433.83;;
11269;SDS011;5692;48.956;9.200;2023-10-13T09:57:26;461.00;;;439.00;;
11269;SDS011;5692;48.956;9.200;2023-10-13T10:00:18;474.50;;;451.87;;
11269;SDS011;5692;48.956;9.200;2023-10-13T10:03:05;452.23;;;430.63;;
11269;SDS011;5692;48.956;9.200;2023-10-13T10:06:01;441.87;;;420.77;;
11269;SDS011;5692;48.956;9.200;2023-10-13T10:08:44;428.40;;;407.97;;
11269;SDS011;5692;48.956;9.200;2023-10-13T10:14:15;461.20;;;439.20;;
11269;SDS011;5692;48.956;9.200;2023-10-13T10:17:01;465.10;;;442.90;;
11269;SDS011;5692;48.956;9.200;2023-10-13T10:19:33;461.93;;;439.90;;
11269;SDS011;5692;48.956;9.200;2023-10-13T10:22:32;451.43;;;429.90;;
11269;SDS011;5692;48.956;9.200;2023-10-13T10:25:01;451.27;;;429.73;;
11269;SDS011;5692;48.956;9.200;2023-10-13T10:27:28;464.53;;;442.37;;
11269;SDS011;5692;48.956;9.200;2023-10-13T10:29:54;466.27;;;444.00;;
11269;SDS011;5692;48.956;9.200;2023-10-13T10:32:44;456.57;;;434.77;;
11269;SDS011;5692;48.956;9.200;2023-10-13T10:35:22;470.40;;;447.97;;
11269;SDS011;5692;48.956;9.200;2023-10-13T10:37:48;464.80;;;442.60;;
11269;SDS011;5692;48.956;9.200;2023-10-13T10:40:15;453.67;;;432.00;;
11269;SDS011;5692;48.956;9.200;2023-10-13T10:42:58;456.37;;;434.57;;
11269;SDS011;5692;48.956;9.200;2023-10-13T10:46:25;458.07;;;436.20;;
11269;SDS011;5692;48.956;9.200;2023-10-13T10:49:07;458.97;;;437.07;;
11269;SDS011;5692;48.956;9.200;2023-10-13T10:51:33;475.33;;;452.63;;
11269;SDS011;5692;48.956;9.200;2023-10-13T10:54:17;461.93;;;439.90;;
11269;SDS011;5692;48.956;9.200;2023-10-13T10:56:58;480.60;;;457.70;;
11269;SDS011;5692;48.956;9.200;2023-10-13T10:59:38;471.37;;;448.87;;
11269;SDS011;5692;48.956;9.200;2023-10-13T11:02:39;456.13;;;434.33;;
11269;SDS011;5692;48.956;9.200;2023-10-13T11:05:05;442.40;;;421.30;;
11269;SDS011;5692;48.956;9.200;2023-10-13T11:07:34;470.20;;;447.77;;
11269;SDS011;5692;48.956;9.200;2023-10-13T11:10:18;474.03;;;451.43;;
11269;SDS011;5692;48.956;9.200;2023-10-13T11:12:58;477.70;;;454.90;;
11269;SDS011;5692;48.956;9.200;2023-10-13T11:15:45;466.73;;;444.47;;
11269;SDS011;5692;48.956;9.200;2023-10-13T11:18:12;472.43;;;449.90;;
11269;SDS011;5692;48.956;9.200;2023-10-13T11:20:46;452.23;;;430.67;;
11269;SDS011;5692;48.956;9.200;2023-10-13T11:23:15;449.03;;;427.60;;
11269;SDS011;5692;48.956;9.200;2023-10-13T11:25:55;460.73;;;438.73;;
11269;SDS011;5692;48.956;9.200;2023-10-13T11:28:25;454.90;;;433.20;;
11269;SDS011;5692;48.956;9.200;2023-10-13T11:30:55;458.10;;;436.23;;
11269;SDS011;5692;48.956;9.200;2023-10-13T11:33:25;466.53;;;444.27;;
11269;SDS011;5692;48.956;9.200;2023-10-13T11:35:58;456.73;;;434.93;;
11269;SDS011;5692;48.956;9.200;2023-10-13T11:38:32;471.70;;;449.20;;
11269;SDS011;5692;48.956;9.200;2023-10-13T11:41:07;458.57;;;436.67;;
11269;SDS011;5692;48.956;9.200;2023-10-13T11:43:43;477.13;;;454.37;;
11269;SDS011;5692;48.956;9.200;2023-10-13T11:46:15;471.20;;;448.73;;
11269;SDS011;5692;48.956;9.200;2023-10-13T11:48:43;470.30;;;447.87;;
11269;SDS011;5692;48.956;9.200;2023-10-13T11:51:10;486.93;;;463.70;;
11269;SDS011;5692;48.956;9.200;2023-10-13T11:53:51;460.80;;;438.83;;
11269;SDS011;5692;48.956;9.200;2023-10-13T11:56:18;467.43;;;445.13;;
11269;SDS011;5692;48.956;9.200;2023-10-13T11:58:47;476.00;;;453.30;;
11269;SDS011;5692;48.956;9.200;2023-10-13T12:01:14;482.60;;;459.57;;
11269;SDS011;5692;48.956;9.200;2023-10-13T12:03:43;469.10;;;446.70;;
11269;SDS011;5692;48.956;9.200;2023-10-13T12:06:28;481.10;;;458.13;;
11269;SDS011;5692;48.956;9.200;2023-10-13T12:09:03;485.43;;;462.27;;
11269;SDS011;5692;48.956;9.200;2023-10-13T12:11:59;470.50;;;448.03;;
11269;SDS011;5692;48.956;9.200;2023-10-13T12:14:26;475.97;;;453.27;;
11269;SDS011;5692;48.956;9.200;2023-10-13T12:17:17;476.50;;;453.80;;
11269;SDS011;5692;48.956;9.200;2023-10-13T12:19:51;487.37;;;464.10;;
11269;SDS011;5692;48.956;9.200;2023-10-13T12:22:19;473.33;;;450.77;;
11269;SDS011;5692;48.956;9.200;2023-10-13T12:25:15;477.60;;;454.80;;
11269;SDS011;5692;48.956;9.200;2023-10-13T12:27:52;481.37;;;458.37;;
11269;SDS011;5692;48.956;9.200;2023-10-13T12:30:22;471.23;;;448.73;;
11269;SDS011;5692;48.956;9.200;2023-10-13T12:33:08;488.27;;;464.97;;
11269;SDS011;5692;48.956;9.200;2023-10-13T12:35:43;476.40;;;453.67;;
11269;SDS011;5692;48.956;9.200;2023-10-13T12:38:41;451.70;;;430.10;;
11269;SDS011;5692;48.956;9.200;2023-10-13T12:41:23;465.67;;;443.47;;
11269;SDS011;5692;48.956;9.200;2023-10-13T12:44:08;469.20;;;446.80;;
11269;SDS011;5692;48.956;9.200;2023-10-13T12:46:53;446.47;;;425.13;;
11269;SDS011;5692;48.956;9.200;2023-10-13T12:49:38;454.67;;;432.97;;
11269;SDS011;5692;48.956;9.200;2023-10-13T12:52:04;467.13;;;444.83;;
11269;SDS011;5692;48.956;9.200;2023-10-13T12:54:41;451.03;;;429.53;;
11269;SDS011;5692;48.956;9.200;2023-10-13T12:57:11;477.00;;;454.20;;
11269;SDS011;5692;48.956;9.200;2023-10-13T12:59:37;477.83;;;455.03;;
11269;SDS011;5692;48.956;9.200;2023-10-13T13:02:07;472.80;;;450.23;;
11269;SDS011;5692;48.956;9.200;2023-10-13T13:04:43;477.17;;;454.37;;
11269;SDS011;5692;48.956;9.200;2023-10-13T13:07:16;480.10;;;457.20;;
11269;SDS011;5692;48.956;9.200;2023-10-13T13:09:44;463.47;;;441.37;;
11269;SDS011;5692;48.956;9.200;2023-10-13T13:12:10;466.33;;;444.07;;
11269;SDS011;5692;48.956;9.200;2023-10-13T13:14:50;490.17;;;466.77;;
11269;SDS011;5692;48.956;9.200;2023-10-13T13:17:23;459.50;;;437.57;;
11269;SDS011;5692;48.956;9.200;2023-10-13T13:19:52;468.40;;;446.00;;
11269;SDS011;5692;48.956;9.200;2023-10-13T13:22:21;457.60;;;435.77;;
11269;SDS011;5692;48.956;9.200;2023-10-13T13:24:49;467.10;;;444.80;;
11269;SDS011;5692;48.956;9.200;2023-10-13T13:27:17;447.90;;;426.50;;
11269;SDS011;5692;48.956;9.200;2023-10-13T13:29:45;467.33;;;445.03;;
11269;SDS011;5692;48.956;9.200;2023-10-13T13:32:11;461.30;;;439.30;;
11269;SDS011;5692;48.956;9.200;2023-10-13T13:34:50;474.40;;;451.80;;
11269;SDS011;5692;48.956;9.200;2023-10-13T13:37:29;445.23;;;424.00;;
11269;SDS011;5692;48.956;9.200;2023-10-13T13:39:55;465.67;;;443.47;;
11269;SDS011;5692;48.956;9.200;2023-10-13T13:42:21;460.30;;;438.33;;
11269;SDS011;5692;48.956;9.200;2023-10-13T13:44:47;452.87;;;431.23;;
11269;SDS011;5692;48.956;9.200;2023-10-13T13:47:13;460.30;;;438.30;;
11269;SDS011;5692;48.956;9.200;2023-10-13T13:49:45;441.80;;;420.70;;
11269;SDS011;5692;48.956;9.200;2023-10-13T13:52:16;469.17;;;446.77;;
11269;SDS011;5692;48.956;9.200;2023-10-13T13:54:49;462.40;;;440.30;;
11269;SDS011;5692;48.956;9.200;2023-10-13T13:57:27;469.27;;;446.87;;
11269;SDS011;5692;48.956;9.200;2023-10-13T13:59:56;467.33;;;445.03;;
11269;SDS011;5692;48.956;9.200;2023-10-13T14:02:23;475.03;;;452.37;;
11269;SDS011;5692;48.956;9.200;2023-10-13T14:04:49;458.57;;;436.70;;
11269;SDS011;5692;48.956;9.200;2023-10-13T14:07:18;455.83;;;434.03;;
11269;SDS011;5692;48.956;9.200;2023-10-13T14:09:49;464.83;;;442.67;;
11269;SDS011;5692;48.956;9.200;2023-10-13T14:12:30;465.30;;;443.10;;
11269;SDS011;5692;48.956;9.200;2023-10-13T14:15:09;461.17;;;439.17;;
11269;SDS011;5692;48.956;9.200;2023-10-13T14:17:47;464.13;;;441.97;;
11269;SDS011;5692;48.956;9.200;2023-10-13T14:20:16;464.17;;;442.00;;
11269;SDS011;5692;48.956;9.200;2023-10-13T14:22:45;460.87;;;438.87;;
11269;SDS011;5692;48.956;9.200;2023-10-13T14:25:14;458.60;;;436.70;;
11269;SDS011;5692;48.956;9.200;2023-10-13T14:27:41;466.53;;;444.23;;
11269;SDS011;5692;48.956;9.200;2023-10-13T14:30:10;481.27;;;458.27;;
11269;SDS011;5692;48.956;9.200;2023-10-13T14:32:44;446.10;;;424.80;;
11269;SDS011;5692;48.956;9.200;2023-10-13T14:35:10;457.83;;;435.97;;
11269;SDS011;5692;48.956;9.200;2023-10-13T14:37:42;461.10;;;439.10;;
11269;SDS011;5692;48.956;9.200;2023-10-13T14:40:08;457.50;;;435.70;;
11269;SDS011;5692;48.956;9.200;2023-10-13T14:42:46;457.17;;;435.37;;
11269;SDS011;5692;48.956;9.200;2023-10-13T14:45:12;466.13;;;443.90;;
11269;SDS011;5692;48.956;9.200;2023-10-13T14:47:41;461.47;;;439.43;;
11269;SDS011;5692;48.956;9.200;2023-10-13T14:50:08;467.00;;;444.70;;
11269;SDS011;5692;48.956;9.200;2023-10-13T14:52:42;444.13;;;422.93;;
11269;SDS011;5692;48.956;9.200;2023-10-13T14:55:13;449.57;;;428.10;;
11269;SDS011;5692;48.956;9.200;2023-10-13T14:57:46;451.33;;;429.80;;
11269;SDS011;5692;48.956;9.200;2023-10-13T15:00:15;469.70;;;447.30;;
11269;SDS011;5692;48.956;9.200;2023-10-13T15:02:49;464.07;;;441.93;;
11269;SDS011;5692;48.956;9.200;2023-10-13T15:05:20;469.20;;;446.80;;